Flight Track Log - Related Links

Times and Time Zones

All times are in EDT time to prevent confusion due to time zone crossing. See the JZA7651 flight status page for this flight to view local times or setup timezone preferences in your user account.

Time Position Orientation Groundspeed Altitude Reporting Facility
EDT Latitude Longitude Course Direction KTS MPH feet Rate Location/Type
Sat 09:03:32 PM 38.8833 -77.0667 North 175 201 2,100  Level Potomac TRACON
Sat 09:04:32 PM 38.9167 -77.1167 311° West 215 247 4,600 2,895 Climbing Potomac TRACON
Sat 09:05:26 PM 38.9833 -77.1667 330° Northwest 278 320 7,600 3,263 Climbing Potomac TRACON
Sat 09:06:26 PM 39.0167 -77.2500 297° West 287 330 10,800 2,850 Climbing Potomac TRACON
Sat 09:07:00 PM 39.3920 -76.7945 North  Level Estimated
Sat 09:07:26 PM 39.0833 -77.3167 322° Northwest 301 346 13,300  Level Potomac TRACON
Sat 09:08:00 PM 39.5000 -76.7454 North  Level Estimated
Sat 09:08:32 PM 39.1667 -77.3333 351° North 310 357 16,000  Level Potomac TRACON
Sat 09:10:59 PM 39.3919 -77.3908 349° North 344 396 19,100 1,371 Climbing Washington Center
Sat 09:12:37 PM 39.5664 -77.4369 348° North 369 425 21,600 1,472 Climbing New York Center
Sat 09:13:38 PM 39.6697 -77.4547 352° North 369 425 23,000 1,462 Climbing New York Center
Sat 09:14:36 PM 39.7742 -77.4539 360° North 364 419 24,500 1,513 Climbing New York Center
Sat 09:15:37 PM 39.8764 -77.4528 360° North 364 419 26,000 1,512 Climbing New York Center
Sat 09:16:39 PM 39.9722 -77.4511 North 358 412 27,600 1,100 Climbing New York Center
Sat 09:17:37 PM 40.0606 -77.4378 North 358 412 28,200 706 Climbing New York Center
Sat 09:18:38 PM 40.1647 -77.4017 15° North 352 405 29,000 756 Climbing New York Center
Sat 09:19:36 PM 40.2564 -77.3694 15° North 363 418 29,700 857 Climbing New York Center
Sat 09:20:37 PM 40.3561 -77.3381 13° North 363 418 30,700 885 Climbing New York Center
Sat 09:21:38 PM 40.4644 -77.3019 14° North 363 418 31,500 885 Climbing New York Center
Sat 09:22:39 PM 40.5622 -77.2675 15° North 363 418 32,500 763 Climbing New York Center
Sat 09:23:36 PM 40.6639 -77.2361 13° North 363 418 33,000 256 Climbing New York Center
Sat 09:24:36 PM 40.7658 -77.1992 15° North 368 423 33,000  Level New York Center
Sat 09:25:36 PM 40.8719 -77.1653 14° North 379 436 33,000  Level New York Center
Sat 09:26:36 PM 40.9825 -77.1261 15° North 390 449 33,000  Level New York Center
Sat 09:27:38 PM 41.0928 -77.0897 14° North 396 456 33,000  Level New York Center
Sat 09:28:37 PM 41.2011 -77.0528 14° North 402 463 33,000  Level New York Center
Sat 09:29:36 PM 41.3111 -77.0189 13° North 402 463 33,000  Level New York Center
Sat 09:31:30 PM 41.5125 -76.9436 16° North 409 471 33,000  Level Cleveland Center
Sat 09:32:31 PM 41.6153 -76.9100 14° North 410 472 33,000  Level Cleveland Center
Sat 09:33:32 PM 41.7250 -76.8728 14° North 409 471 33,000  Level Cleveland Center
Sat 09:34:33 PM 41.8567 -76.8258 15° North 408 470 33,000  Level Cleveland Center
Sat 09:35:33 PM 41.9656 -76.7875 15° North 407 468 33,000  Level Cleveland Center
Sat 09:36:34 PM 42.0722 -76.7497 15° North 400 460 33,000  Level Cleveland Center
Sat 09:37:35 PM 42.1797 -76.7114 15° North 400 460 33,000  Level Cleveland Center
Sat 09:38:36 PM 42.2867 -76.6742 14° North 400 460 33,000  Level Cleveland Center
Sat 09:39:37 PM 42.3947 -76.6361 15° North 402 463 33,000  Level Cleveland Center
Sat 09:40:38 PM 42.5033 -76.5961 15° North 407 468 33,000 -53 Level Cleveland Center
Sat 09:41:30 PM 42.5967 -76.5614 15° North 405 466 32,900 -478 Descending Boston Center
Sat 09:42:31 PM 42.7147 -76.5239 13° North 405 466 32,100 -450 Descending Boston Center
Sat 09:43:30 PM 42.8183 -76.4856 15° North 394 453 32,000 -252 Descending Boston Center
Sat 09:44:30 PM 42.9133 -76.4519 15° North 394 453 31,600 -508 Descending Boston Center
Sat 09:45:28 PM 43.0275 -76.4083 16° North 400 460 31,000 -303 Descending Boston Center
Sat 09:46:29 PM 43.1414 -76.3675 15° North 413 475 31,000  Level Boston Center
Sat 09:47:29 PM 43.2533 -76.3289 14° North 418 481 31,000  Level Boston Center
Sat 09:48:31 PM 43.3672 -76.2878 15° North 418 481 31,000  Level Boston Center
Sat 09:49:28 PM 43.4792 -76.2461 15° North 418 481 31,000  Level Boston Center
Sat 09:50:30 PM 43.5931 -76.2044 15° North 418 481 31,000  Level Boston Center
Sat 09:51:30 PM 43.7050 -76.1597 16° North 418 481 31,000  Level Boston Center
Sat 09:52:41 PM 43.8192 -76.1150 16° North 418 481 31,000  Level Boston Center
Sat 09:53:41 PM 43.9564 -76.0600 16° North 418 481 31,000  Level Boston Center
Sat 09:54:42 PM 44.0550 -75.9733 32° Northeast 418 481 31,000  Level Boston Center
Sat 09:55:41 PM 44.1578 -75.8839 32° Northeast 424 488 31,000 -50 Level Boston Center
Sat 09:56:41 PM 44.2583 -75.7942 33° Northeast 430 495 30,900 -50 Descending Boston Center
Sat 09:57:41 PM 44.3428 -75.6800 44° Northeast 425 489 30,900  Level Boston Center
Sat 09:58:43 PM 44.4275 -75.5594 45° Northeast 420 483 30,900 50 Level Boston Center
Sat 09:59:40 PM 44.5097 -75.4414 46° Northeast 420 483 31,000 51 Climbing Boston Center
Sat 10:00:40 PM 44.5919 -75.3203 46° Northeast 426 490 31,000  Level Boston Center
Sat 10:01:41 PM 44.6783 -75.1989 45° Northeast 431 496 31,000 -49 Level Boston Center
Sat 10:02:42 PM 44.7606 -75.0714 48° Northeast 436 502 30,900 -1,457 Descending Boston Center
Sat 10:04:01 PM 44.8667 -74.9000 49° Northeast 420 483 27,600 -2,719 Descending Montreal Center
Sat 10:05:01 PM 44.9500 -74.7833 45° Northeast 400 460 24,600 -2,850 Descending Montreal Center
Sat 10:06:01 PM 45.0167 -74.6667 51° Northeast 400 460 21,900 -1,593 Descending Montreal Center
Sat 10:08:00 PM 45.1565 -74.4602 35° Northeast  Level FlightAware Approximate
Sat 10:15:00 PM 45.4681 -73.7414 46° Northeast  Level Estimated
Sat 10:16:00 PM 45.4681 -73.7414 188° South  Level Estimated
Sat 10:17:00 PM 45.4681 -73.7414 199° South  Level Estimated
Sat 10:18:00 PM 45.4667 -73.7333 199° South  Level FlightAware Approximate
Sat 10:19:00 PM 45.4681 -73.7414 199° South  Level Estimated
Sat 10:20:00 PM 45.4667 -73.7333 199° South  Level FlightAware Approximate
Sat 10:20:01 PM 45.4833 -73.7000 199° South 140 161 700  Level Montreal Center
Sat 10:21:00 PM 45.4681 -73.7414 199° South  Level Estimated
Sat 10:21:01 PM 45.4667 -73.7500 245° Southwest 110 127 100  Level Montreal Center
Sat 10:22:00 PM 45.4667 -73.7333 199° South  Level FlightAware Approximate
Sat 10:22:01 PM 45.4500 -73.7500 180° South 30 35 100  Level Montreal Center
Sat 10:22:27 PM 45.4500 -73.7500 180° South 20 23 100  Level Montreal Center

Login

Don't have an account? Register now (free) for customized features, flight alerts, and more!